sensor_id;sensor_type;location;lat;lon;timestamp;pressure;altitude;pressure_sealevel;temperature;humidity
23339;BME280;11841;49.368;20.962;2023-05-11T00:01:56;96021.97;;;4.38;76.07
23339;BME280;11841;49.368;20.962;2023-05-11T00:04:43;96025.59;;;4.37;75.86
23339;BME280;11841;49.368;20.962;2023-05-11T00:07:28;96020.72;;;4.34;76.08
23339;BME280;11841;49.368;20.962;2023-05-11T00:10:14;96025.31;;;4.32;76.13
23339;BME280;11841;49.368;20.962;2023-05-11T00:12:59;96023.34;;;4.26;76.16
23339;BME280;11841;49.368;20.962;2023-05-11T00:15:44;96028.94;;;4.23;76.04
23339;BME280;11841;49.368;20.962;2023-05-11T00:18:30;96029.28;;;4.20;76.07
23339;BME280;11841;49.368;20.962;2023-05-11T00:21:15;96026.00;;;4.18;76.10
23339;BME280;11841;49.368;20.962;2023-05-11T00:24:01;96028.31;;;4.13;76.58
23339;BME280;11841;49.368;20.962;2023-05-11T00:26:46;96011.28;;;4.09;76.77
23339;BME280;11841;49.368;20.962;2023-05-11T00:29:31;96015.91;;;4.07;76.51
23339;BME280;11841;49.368;20.962;2023-05-11T00:32:17;96015.91;;;4.07;76.57
23339;BME280;11841;49.368;20.962;2023-05-11T00:35:02;96015.56;;;4.02;77.07
23339;BME280;11841;49.368;20.962;2023-05-11T00:37:47;96016.72;;;4.00;77.26
23339;BME280;11841;49.368;20.962;2023-05-11T00:40:33;96016.25;;;3.96;77.07
23339;BME280;11841;49.368;20.962;2023-05-11T00:43:18;96013.97;;;3.93;76.89
23339;BME280;11841;49.368;20.962;2023-05-11T00:46:04;96016.09;;;3.90;76.84
23339;BME280;11841;49.368;20.962;2023-05-11T00:48:49;96018.06;;;3.88;76.69
23339;BME280;11841;49.368;20.962;2023-05-11T00:51:35;96017.25;;;3.87;76.87
23339;BME280;11841;49.368;20.962;2023-05-11T00:54:20;96005.47;;;3.83;77.03
23339;BME280;11841;49.368;20.962;2023-05-11T00:57:05;96015.66;;;3.78;77.28
23339;BME280;11841;49.368;20.962;2023-05-11T00:59:50;96019.41;;;3.76;77.54
23339;BME280;11841;49.368;20.962;2023-05-11T01:02:36;96012.06;;;3.71;77.24
23339;BME280;11841;49.368;20.962;2023-05-11T01:05:31;96010.75;;;3.67;76.96
23339;BME280;11841;49.368;20.962;2023-05-11T01:08:31;96014.53;;;3.64;77.33
23339;BME280;11841;49.368;20.962;2023-05-11T01:11:36;96014.69;;;3.63;77.16
23339;BME280;11841;49.368;20.962;2023-05-11T01:14:40;96013.38;;;3.59;77.00
23339;BME280;11841;49.368;20.962;2023-05-11T01:17:37;96019.13;;;3.54;77.59
23339;BME280;11841;49.368;20.962;2023-05-11T01:20:28;96021.28;;;3.51;77.54
23339;BME280;11841;49.368;20.962;2023-05-11T01:27:11;96019.28;;;3.45;78.06
23339;BME280;11841;49.368;20.962;2023-05-11T01:33:06;96022.25;;;3.42;77.43
23339;BME280;11841;49.368;20.962;2023-05-11T01:35:55;96020.44;;;3.34;77.85
23339;BME280;11841;49.368;20.962;2023-05-11T01:38:47;96014.06;;;3.29;77.70
23339;BME280;11841;49.368;20.962;2023-05-11T01:41:34;96015.03;;;3.28;77.72
23339;BME280;11841;49.368;20.962;2023-05-11T01:44:24;96013.09;;;3.30;78.04
23339;BME280;11841;49.368;20.962;2023-05-11T01:47:10;96014.75;;;3.31;77.97
23339;BME280;11841;49.368;20.962;2023-05-11T01:49:59;96021.94;;;3.29;77.61
23339;BME280;11841;49.368;20.962;2023-05-11T01:52:46;96025.88;;;3.25;78.58
23339;BME280;11841;49.368;20.962;2023-05-11T01:55:33;96029.47;;;3.24;77.87
23339;BME280;11841;49.368;20.962;2023-05-11T01:58:23;96023.41;;;3.23;78.13
23339;BME280;11841;49.368;20.962;2023-05-11T02:01:09;96028.00;;;3.21;77.69
23339;BME280;11841;49.368;20.962;2023-05-11T02:03:56;96026.53;;;3.19;78.18
23339;BME280;11841;49.368;20.962;2023-05-11T02:06:43;96027.81;;;3.15;78.27
23339;BME280;11841;49.368;20.962;2023-05-11T02:09:32;96023.59;;;3.14;78.01
23339;BME280;11841;49.368;20.962;2023-05-11T02:12:19;96029.94;;;3.11;78.47
23339;BME280;11841;49.368;20.962;2023-05-11T02:15:06;96030.28;;;3.08;78.25
23339;BME280;11841;49.368;20.962;2023-05-11T02:17:54;96028.78;;;3.06;78.21
23339;BME280;11841;49.368;20.962;2023-05-11T02:20:42;96033.25;;;3.05;78.26
23339;BME280;11841;49.368;20.962;2023-05-11T02:23:30;96022.09;;;3.03;78.52
23339;BME280;11841;49.368;20.962;2023-05-11T02:26:16;96024.06;;;3.01;78.04
23339;BME280;11841;49.368;20.962;2023-05-11T02:29:02;96019.94;;;2.99;78.31
23339;BME280;11841;49.368;20.962;2023-05-11T02:31:54;96021.94;;;2.97;78.09
23339;BME280;11841;49.368;20.962;2023-05-11T02:34:41;96018.50;;;2.96;78.60
23339;BME280;11841;49.368;20.962;2023-05-11T02:37:27;96015.22;;;2.94;78.65
23339;BME280;11841;49.368;20.962;2023-05-11T02:40:17;96022.72;;;2.89;78.92
23339;BME280;11841;49.368;20.962;2023-05-11T02:43:09;96020.28;;;2.88;78.33
23339;BME280;11841;49.368;20.962;2023-05-11T02:45:59;96025.69;;;2.86;78.45
23339;BME280;11841;49.368;20.962;2023-05-11T02:48:49;96023.56;;;2.82;78.38
23339;BME280;11841;49.368;20.962;2023-05-11T02:51:37;96022.22;;;2.78;78.82
23339;BME280;11841;49.368;20.962;2023-05-11T02:54:23;96026.63;;;2.77;78.98
23339;BME280;11841;49.368;20.962;2023-05-11T02:57:10;96024.84;;;2.78;79.18
23339;BME280;11841;49.368;20.962;2023-05-11T02:59:55;96018.44;;;2.72;78.82
23339;BME280;11841;49.368;20.962;2023-05-11T03:02:41;96020.25;;;2.72;78.86
23339;BME280;11841;49.368;20.962;2023-05-11T03:05:26;96027.47;;;2.78;78.56
23339;BME280;11841;49.368;20.962;2023-05-11T03:08:12;96020.09;;;2.73;78.88
23339;BME280;11841;49.368;20.962;2023-05-11T03:10:57;96027.31;;;2.71;78.78
23339;BME280;11841;49.368;20.962;2023-05-11T03:13:43;96028.25;;;2.70;78.54
23339;BME280;11841;49.368;20.962;2023-05-11T03:16:30;96029.59;;;2.66;78.94
23339;BME280;11841;49.368;20.962;2023-05-11T03:19:16;96027.94;;;2.65;78.80
23339;BME280;11841;49.368;20.962;2023-05-11T03:22:01;96031.38;;;2.66;78.83
23339;BME280;11841;49.368;20.962;2023-05-11T03:24:48;96024.66;;;2.63;79.28
23339;BME280;11841;49.368;20.962;2023-05-11T03:27:35;96026.63;;;2.61;79.48
23339;BME280;11841;49.368;20.962;2023-05-11T03:30:22;96031.38;;;2.66;79.29
23339;BME280;11841;49.368;20.962;2023-05-11T03:33:08;96031.72;;;2.71;78.99
23339;BME280;11841;49.368;20.962;2023-05-11T03:35:53;96032.53;;;2.71;79.10
23339;BME280;11841;49.368;20.962;2023-05-11T03:38:40;96030.09;;;2.70;79.01
23339;BME280;11841;49.368;20.962;2023-05-11T03:41:26;96034.66;;;2.68;79.58
23339;BME280;11841;49.368;20.962;2023-05-11T03:44:13;96024.84;;;2.70;79.54
23339;BME280;11841;49.368;20.962;2023-05-11T03:46:59;96030.88;;;2.70;79.81
23339;BME280;11841;49.368;20.962;2023-05-11T03:49:46;96035.31;;;2.70;80.53
23339;BME280;11841;49.368;20.962;2023-05-11T03:52:32;96030.72;;;2.72;80.21
23339;BME280;11841;49.368;20.962;2023-05-11T03:55:18;96027.97;;;2.73;80.51
23339;BME280;11841;49.368;20.962;2023-05-11T03:58:07;96035.66;;;2.75;80.95
23339;BME280;11841;49.368;20.962;2023-05-11T04:00:53;96043.34;;;2.76;81.22
23339;BME280;11841;49.368;20.962;2023-05-11T04:03:49;96036.78;;;2.80;81.67
23339;BME280;11841;49.368;20.962;2023-05-11T04:06:35;96037.00;;;2.87;81.84
23339;BME280;11841;49.368;20.962;2023-05-11T04:09:20;96031.59;;;2.88;81.82
23339;BME280;11841;49.368;20.962;2023-05-11T04:12:06;96034.69;;;2.92;82.12
23339;BME280;11841;49.368;20.962;2023-05-11T04:14:51;96036.66;;;2.98;82.38
23339;BME280;11841;49.368;20.962;2023-05-11T04:17:36;96039.94;;;3.00;82.43
23339;BME280;11841;49.368;20.962;2023-05-11T04:20:22;96046.16;;;3.07;82.37
23339;BME280;11841;49.368;20.962;2023-05-11T04:23:07;96040.94;;;3.15;82.13
23339;BME280;11841;49.368;20.962;2023-05-11T04:25:55;96042.88;;;3.21;82.44
23339;BME280;11841;49.368;20.962;2023-05-11T04:28:40;96044.19;;;3.25;82.38
23339;BME280;11841;49.368;20.962;2023-05-11T04:31:26;96043.69;;;3.29;83.06
23339;BME280;11841;49.368;20.962;2023-05-11T04:34:11;96051.59;;;3.37;83.31
23339;BME280;11841;49.368;20.962;2023-05-11T04:36:56;96038.81;;;3.42;82.94
23339;BME280;11841;49.368;20.962;2023-05-11T04:39:42;96038.97;;;3.49;82.99
23339;BME280;11841;49.368;20.962;2023-05-11T04:42:28;96040.09;;;3.54;83.58
23339;BME280;11841;49.368;20.962;2023-05-11T04:45:14;96041.22;;;3.60;83.92
23339;BME280;11841;49.368;20.962;2023-05-11T04:47:59;96037.31;;;3.64;84.65
23339;BME280;11841;49.368;20.962;2023-05-11T04:50:45;96033.69;;;3.73;84.51
23339;BME280;11841;49.368;20.962;2023-05-11T04:53:30;96031.69;;;3.83;84.26
23339;BME280;11841;49.368;20.962;2023-05-11T04:56:15;96033.28;;;3.92;84.21
23339;BME280;11841;49.368;20.962;2023-05-11T04:59:01;96035.25;;;3.98;84.56
23339;BME280;11841;49.368;20.962;2023-05-11T05:01:49;96043.09;;;4.06;84.62
23339;BME280;11841;49.368;20.962;2023-05-11T05:04:34;96043.25;;;4.13;84.87
23339;BME280;11841;49.368;20.962;2023-05-11T05:07:20;96046.66;;;4.21;84.54
23339;BME280;11841;49.368;20.962;2023-05-11T05:10:06;96049.28;;;4.29;85.04
23339;BME280;11841;49.368;20.962;2023-05-11T05:12:53;96043.97;;;4.37;85.84
23339;BME280;11841;49.368;20.962;2023-05-11T05:15:38;96039.34;;;4.47;85.69
23339;BME280;11841;49.368;20.962;2023-05-11T05:18:23;96041.09;;;4.55;86.17
23339;BME280;11841;49.368;20.962;2023-05-11T05:21:09;96047.13;;;4.63;85.81
23339;BME280;11841;49.368;20.962;2023-05-11T05:23:54;96042.81;;;4.70;86.37
23339;BME280;11841;49.368;20.962;2023-05-11T05:26:39;96043.44;;;4.80;86.36
23339;BME280;11841;49.368;20.962;2023-05-11T05:29:25;96040.41;;;4.91;86.08
23339;BME280;11841;49.368;20.962;2023-05-11T05:32:10;96035.09;;;5.00;85.64
23339;BME280;11841;49.368;20.962;2023-05-11T05:34:55;96039.16;;;5.10;85.22
23339;BME280;11841;49.368;20.962;2023-05-11T05:37:41;96046.59;;;5.21;85.95
23339;BME280;11841;49.368;20.962;2023-05-11T05:40:26;96037.31;;;5.33;85.94
23339;BME280;11841;49.368;20.962;2023-05-11T05:43:11;96034.94;;;5.46;85.80
23339;BME280;11841;49.368;20.962;2023-05-11T05:45:56;96026.41;;;5.59;85.66
23339;BME280;11841;49.368;20.962;2023-05-11T05:48:41;96026.00;;;5.70;85.84
23339;BME280;11841;49.368;20.962;2023-05-11T05:51:27;96023.41;;;5.84;85.60
23339;BME280;11841;49.368;20.962;2023-05-11T05:54:12;96026.41;;;5.96;85.49
23339;BME280;11841;49.368;20.962;2023-05-11T05:56:57;96019.69;;;6.08;86.34
23339;BME280;11841;49.368;20.962;2023-05-11T05:59:43;96019.25;;;6.19;85.45
23339;BME280;11841;49.368;20.962;2023-05-11T06:02:28;96016.16;;;6.30;85.02
23339;BME280;11841;49.368;20.962;2023-05-11T06:05:13;96016.50;;;6.42;86.06
23339;BME280;11841;49.368;20.962;2023-05-11T06:07:58;96023.38;;;6.57;84.79
23339;BME280;11841;49.368;20.962;2023-05-11T06:10:55;96016.63;;;6.69;85.07
23339;BME280;11841;49.368;20.962;2023-05-11T06:13:40;96013.53;;;6.80;84.32
23339;BME280;11841;49.368;20.962;2023-05-11T06:16:26;96015.03;;;6.89;84.64
23339;BME280;11841;49.368;20.962;2023-05-11T06:19:12;96003.38;;;6.98;85.14
23339;BME280;11841;49.368;20.962;2023-05-11T06:21:57;96011.03;;;7.14;86.47
23339;BME280;11841;49.368;20.962;2023-05-11T06:24:42;96016.06;;;7.52;85.79
23339;BME280;11841;49.368;20.962;2023-05-11T06:27:28;96015.13;;;7.87;83.54
23339;BME280;11841;49.368;20.962;2023-05-11T06:30:13;96017.22;;;7.98;83.67
23339;BME280;11841;49.368;20.962;2023-05-11T06:32:59;96016.69;;;8.09;84.12
23339;BME280;11841;49.368;20.962;2023-05-11T06:35:44;96011.13;;;8.31;84.51
23339;BME280;11841;49.368;20.962;2023-05-11T06:38:29;96009.09;;;8.74;81.68
23339;BME280;11841;49.368;20.962;2023-05-11T06:41:15;96014.88;;;8.91;81.64
23339;BME280;11841;49.368;20.962;2023-05-11T06:44:00;96007.41;;;9.33;79.97
23339;BME280;11841;49.368;20.962;2023-05-11T06:46:45;96007.25;;;9.74;77.60
23339;BME280;11841;49.368;20.962;2023-05-11T06:49:31;96013.97;;;10.03;76.67
23339;BME280;11841;49.368;20.962;2023-05-11T06:52:16;96014.19;;;10.14;76.07
23339;BME280;11841;49.368;20.962;2023-05-11T06:55:02;96007.16;;;10.46;74.50
23339;BME280;11841;49.368;20.962;2023-05-11T06:57:48;96002.78;;;10.71;72.84
23339;BME280;11841;49.368;20.962;2023-05-11T07:00:33;96006.84;;;10.80;72.54
23339;BME280;11841;49.368;20.962;2023-05-11T07:03:18;96004.16;;;10.86;73.05
23339;BME280;11841;49.368;20.962;2023-05-11T07:06:04;95999.63;;;10.93;72.87
23339;BME280;11841;49.368;20.962;2023-05-11T07:08:49;96001.16;;;11.14;72.34
23339;BME280;11841;49.368;20.962;2023-05-11T07:11:34;96000.31;;;11.20;72.12
23339;BME280;11841;49.368;20.962;2023-05-11T07:14:20;95995.72;;;11.34;70.69
23339;BME280;11841;49.368;20.962;2023-05-11T07:17:05;96003.56;;;11.53;70.07
23339;BME280;11841;49.368;20.962;2023-05-11T07:19:51;96002.47;;;11.67;69.39
23339;BME280;11841;49.368;20.962;2023-05-11T07:22:36;96003.22;;;11.74;68.29
23339;BME280;11841;49.368;20.962;2023-05-11T07:25:22;95996.22;;;11.80;68.36
23339;BME280;11841;49.368;20.962;2023-05-11T07:28:07;96008.44;;;11.87;68.70
23339;BME280;11841;49.368;20.962;2023-05-11T07:30:52;95999.44;;;11.88;69.08
23339;BME280;11841;49.368;20.962;2023-05-11T07:33:38;95999.75;;;11.98;68.02
23339;BME280;11841;49.368;20.962;2023-05-11T07:36:24;95993.13;;;12.07;66.85
23339;BME280;11841;49.368;20.962;2023-05-11T07:39:09;95995.66;;;12.21;67.66
23339;BME280;11841;49.368;20.962;2023-05-11T07:41:54;96005.50;;;12.38;67.03
23339;BME280;11841;49.368;20.962;2023-05-11T07:44:40;96001.31;;;12.49;66.86
23339;BME280;11841;49.368;20.962;2023-05-11T07:47:25;96000.78;;;12.58;65.79
23339;BME280;11841;49.368;20.962;2023-05-11T07:50:11;96003.97;;;12.67;65.44
23339;BME280;11841;49.368;20.962;2023-05-11T07:52:56;96013.56;;;12.68;65.43
23339;BME280;11841;49.368;20.962;2023-05-11T07:55:41;96012.22;;;12.77;64.56
23339;BME280;11841;49.368;20.962;2023-05-11T07:58:27;96015.78;;;12.89;64.13
23339;BME280;11841;49.368;20.962;2023-05-11T08:01:12;96010.13;;;12.97;63.25
23339;BME280;11841;49.368;20.962;2023-05-11T08:03:58;96014.97;;;13.06;63.03
23339;BME280;11841;49.368;20.962;2023-05-11T08:06:43;96014.44;;;13.16;63.07
23339;BME280;11841;49.368;20.962;2023-05-11T08:09:28;96011.00;;;13.27;62.23
23339;BME280;11841;49.368;20.962;2023-05-11T08:12:14;96008.03;;;13.35;62.50
23339;BME280;11841;49.368;20.962;2023-05-11T08:14:59;96012.44;;;13.41;61.16
23339;BME280;11841;49.368;20.962;2023-05-11T08:17:44;96016.50;;;13.44;61.60
23339;BME280;11841;49.368;20.962;2023-05-11T08:20:31;96017.44;;;13.49;60.95
23339;BME280;11841;49.368;20.962;2023-05-11T08:23:16;96001.81;;;13.53;60.14
23339;BME280;11841;49.368;20.962;2023-05-11T08:26:02;96015.25;;;13.58;61.08
23339;BME280;11841;49.368;20.962;2023-05-11T08:28:48;96001.16;;;13.69;60.49
23339;BME280;11841;49.368;20.962;2023-05-11T08:31:33;96006.97;;;13.77;58.82
23339;BME280;11841;49.368;20.962;2023-05-11T08:34:18;96018.78;;;13.81;58.95
23339;BME280;11841;49.368;20.962;2023-05-11T08:37:04;96009.63;;;13.66;58.70
23339;BME280;11841;49.368;20.962;2023-05-11T08:39:50;96014.13;;;13.54;59.51
23339;BME280;11841;49.368;20.962;2023-05-11T08:42:39;96008.69;;;13.60;60.22
23339;BME280;11841;49.368;20.962;2023-05-11T08:45:24;96006.13;;;13.65;59.45
23339;BME280;11841;49.368;20.962;2023-05-11T08:48:10;95999.28;;;13.58;59.54
23339;BME280;11841;49.368;20.962;2023-05-11T08:50:56;96000.09;;;13.58;59.53
23339;BME280;11841;49.368;20.962;2023-05-11T08:53:41;95998.50;;;13.69;61.23
23339;BME280;11841;49.368;20.962;2023-05-11T08:56:28;96005.16;;;13.89;59.90
23339;BME280;11841;49.368;20.962;2023-05-11T08:59:14;96001.66;;;14.00;60.15
23339;BME280;11841;49.368;20.962;2023-05-11T09:02:00;95996.69;;;14.04;58.87
23339;BME280;11841;49.368;20.962;2023-05-11T09:04:46;96005.38;;;13.99;59.74
23339;BME280;11841;49.368;20.962;2023-05-11T09:07:35;96008.72;;;13.95;59.36
23339;BME280;11841;49.368;20.962;2023-05-11T09:10:21;96001.44;;;13.90;58.82
23339;BME280;11841;49.368;20.962;2023-05-11T09:13:06;96001.44;;;13.90;59.33
23339;BME280;11841;49.368;20.962;2023-05-11T09:15:51;96007.59;;;13.91;59.29
23339;BME280;11841;49.368;20.962;2023-05-11T09:18:51;96003.50;;;13.88;58.61
23339;BME280;11841;49.368;20.962;2023-05-11T09:21:37;96003.50;;;13.88;58.68
23339;BME280;11841;49.368;20.962;2023-05-11T09:24:22;96008.41;;;13.91;57.86
23339;BME280;11841;49.368;20.962;2023-05-11T09:27:08;96004.22;;;13.95;58.78
23339;BME280;11841;49.368;20.962;2023-05-11T09:29:53;96001.09;;;13.98;58.35
23339;BME280;11841;49.368;20.962;2023-05-11T09:32:51;96013.03;;;14.07;59.68
23339;BME280;11841;49.368;20.962;2023-05-11T09:35:37;96001.69;;;14.23;56.83
23339;BME280;11841;49.368;20.962;2023-05-11T09:38:23;95990.13;;;14.29;57.63
23339;BME280;11841;49.368;20.962;2023-05-11T09:41:08;95992.00;;;14.40;57.73
23339;BME280;11841;49.368;20.962;2023-05-11T09:44:06;95991.16;;;14.51;57.15
23339;BME280;11841;49.368;20.962;2023-05-11T09:47:18;95998.78;;;14.60;56.67
23339;BME280;11841;49.368;20.962;2023-05-11T09:50:16;95987.28;;;14.71;56.85
23339;BME280;11841;49.368;20.962;2023-05-11T09:53:10;95979.00;;;14.84;55.30
23339;BME280;11841;49.368;20.962;2023-05-11T09:55:55;95976.84;;;15.09;56.02
23339;BME280;11841;49.368;20.962;2023-05-11T09:58:52;95986.81;;;15.13;55.72
23339;BME280;11841;49.368;20.962;2023-05-11T10:01:42;95986.97;;;15.07;54.91
23339;BME280;11841;49.368;20.962;2023-05-11T10:04:28;95987.09;;;15.00;54.59
23339;BME280;11841;49.368;20.962;2023-05-11T10:07:27;95981.41;;;14.97;54.03
23339;BME280;11841;49.368;20.962;2023-05-11T10:10:12;95974.44;;;14.96;53.28
23339;BME280;11841;49.368;20.962;2023-05-11T10:13:00;95969.44;;;14.99;54.03
23339;BME280;11841;49.368;20.962;2023-05-11T10:15:49;95962.53;;;15.15;53.82
23339;BME280;11841;49.368;20.962;2023-05-11T10:18:36;95959.81;;;15.26;53.49
23339;BME280;11841;49.368;20.962;2023-05-11T10:21:21;95959.31;;;15.41;53.14
23339;BME280;11841;49.368;20.962;2023-05-11T10:24:09;95951.47;;;15.51;51.81
23339;BME280;11841;49.368;20.962;2023-05-11T10:26:55;95962.25;;;15.56;51.63
23339;BME280;11841;49.368;20.962;2023-05-11T10:29:41;95953.03;;;15.63;50.71
23339;BME280;11841;49.368;20.962;2023-05-11T10:32:26;95956.75;;;15.62;52.00
23339;BME280;11841;49.368;20.962;2023-05-11T10:35:12;95965.81;;;15.61;52.44
23339;BME280;11841;49.368;20.962;2023-05-11T10:37:57;95957.00;;;15.61;51.74
23339;BME280;11841;49.368;20.962;2023-05-11T10:40:44;95959.84;;;15.71;51.49
23339;BME280;11841;49.368;20.962;2023-05-11T10:50:12;95949.63;;;16.01;48.43
23339;BME280;11841;49.368;20.962;2023-05-11T11:02:29;95935.75;;;16.04;49.19
23339;BME280;11841;49.368;20.962;2023-05-11T11:05:31;95931.06;;;16.11;47.23
23339;BME280;11841;49.368;20.962;2023-05-11T11:08:17;95935.75;;;16.04;47.09
23339;BME280;11841;49.368;20.962;2023-05-11T11:11:56;95940.16;;;16.10;48.37
23339;BME280;11841;49.368;20.962;2023-05-11T11:17:39;95927.09;;;16.52;47.91
23339;BME280;11841;49.368;20.962;2023-05-11T11:20:45;95932.88;;;16.65;49.33
23339;BME280;11841;49.368;20.962;2023-05-11T11:23:43;95930.97;;;16.82;47.28
23339;BME280;11841;49.368;20.962;2023-05-11T11:26:48;95924.84;;;16.87;46.74
23339;BME280;11841;49.368;20.962;2023-05-11T11:29:35;95926.78;;;16.92;45.53
23339;BME280;11841;49.368;20.962;2023-05-11T11:38:24;95929.41;;;16.86;44.22
23339;BME280;11841;49.368;20.962;2023-05-11T11:41:27;95919.13;;;16.78;44.50
23339;BME280;11841;49.368;20.962;2023-05-11T11:44:20;95925.59;;;16.82;44.18
23339;BME280;11841;49.368;20.962;2023-05-11T11:50:09;95920.38;;;16.71;42.89
23339;BME280;11841;49.368;20.962;2023-05-11T11:52:55;95926.06;;;16.74;45.15
23339;BME280;11841;49.368;20.962;2023-05-11T11:55:50;95927.47;;;16.82;44.55
23339;BME280;11841;49.368;20.962;2023-05-11T12:01:27;95936.25;;;16.77;42.66
23339;BME280;11841;49.368;20.962;2023-05-11T12:04:38;95937.50;;;16.70;41.29
23339;BME280;11841;49.368;20.962;2023-05-11T12:07:26;95936.06;;;16.62;41.83
23339;BME280;11841;49.368;20.962;2023-05-11T12:10:16;95928.03;;;16.62;42.59
23339;BME280;11841;49.368;20.962;2023-05-11T12:13:02;95930.16;;;16.60;42.85
23339;BME280;11841;49.368;20.962;2023-05-11T12:15:48;95936.50;;;16.54;42.23
23339;BME280;11841;49.368;20.962;2023-05-11T12:18:34;95934.88;;;16.53;41.65
23339;BME280;11841;49.368;20.962;2023-05-11T12:21:20;95913.16;;;16.50;41.41
23339;BME280;11841;49.368;20.962;2023-05-11T12:24:06;95934.31;;;16.51;42.69
23339;BME280;11841;49.368;20.962;2023-05-11T12:26:54;95933.84;;;16.54;42.25
23339;BME280;11841;49.368;20.962;2023-05-11T12:29:40;95916.78;;;16.60;41.98
23339;BME280;11841;49.368;20.962;2023-05-11T12:32:30;95907.19;;;16.64;41.17
23339;BME280;11841;49.368;20.962;2023-05-11T12:35:21;95906.63;;;16.62;39.67
23339;BME280;11841;49.368;20.962;2023-05-11T12:38:09;95905.06;;;16.66;42.04
23339;BME280;11841;49.368;20.962;2023-05-11T12:40:54;95900.31;;;16.95;41.36
23339;BME280;11841;49.368;20.962;2023-05-11T12:43:40;95887.75;;;17.22;42.59
23339;BME280;11841;49.368;20.962;2023-05-11T12:46:26;95888.25;;;17.46;40.81
23339;BME280;11841;49.368;20.962;2023-05-11T12:49:16;95895.34;;;17.62;39.17
23339;BME280;11841;49.368;20.962;2023-05-11T12:52:11;95891.63;;;17.63;38.23
23339;BME280;11841;49.368;20.962;2023-05-11T12:54:57;95899.09;;;17.61;40.68
23339;BME280;11841;49.368;20.962;2023-05-11T12:57:44;95899.22;;;17.76;39.08
23339;BME280;11841;49.368;20.962;2023-05-11T13:00:29;95889.63;;;17.80;38.68
23339;BME280;11841;49.368;20.962;2023-05-11T13:03:26;95880.22;;;17.82;38.66
23339;BME280;11841;49.368;20.962;2023-05-11T13:06:12;95876.78;;;17.92;38.35
23339;BME280;11841;49.368;20.962;2023-05-11T13:08:58;95880.22;;;17.82;38.74
23339;BME280;11841;49.368;20.962;2023-05-11T13:11:43;95882.56;;;17.74;40.19
23339;BME280;11841;49.368;20.962;2023-05-11T13:14:30;95871.00;;;17.68;38.81
23339;BME280;11841;49.368;20.962;2023-05-11T13:17:35;95876.56;;;17.62;40.48
23339;BME280;11841;49.368;20.962;2023-05-11T13:23:14;95881.31;;;17.50;39.25
23339;BME280;11841;49.368;20.962;2023-05-11T13:26:00;95867.59;;;17.46;39.88
23339;BME280;11841;49.368;20.962;2023-05-11T13:28:45;95872.22;;;17.51;38.66
23339;BME280;11841;49.368;20.962;2023-05-11T13:31:48;95868.63;;;17.72;39.57
23339;BME280;11841;49.368;20.962;2023-05-11T13:34:34;95860.38;;;17.83;40.10
23339;BME280;11841;49.368;20.962;2023-05-11T13:37:20;95867.16;;;17.91;38.29
23339;BME280;11841;49.368;20.962;2023-05-11T13:40:06;95863.31;;;17.82;38.30
23339;BME280;11841;49.368;20.962;2023-05-11T13:42:54;95847.47;;;17.80;39.67
23339;BME280;11841;49.368;20.962;2023-05-11T13:45:40;95852.13;;;17.90;39.41
23339;BME280;11841;49.368;20.962;2023-05-11T13:48:26;95852.66;;;17.92;37.00
23339;BME280;11841;49.368;20.962;2023-05-11T13:51:11;95853.75;;;17.96;38.68
23339;BME280;11841;49.368;20.962;2023-05-11T13:53:56;95849.59;;;18.15;37.67
23339;BME280;11841;49.368;20.962;2023-05-11T13:56:43;95852.81;;;18.12;37.81
23339;BME280;11841;49.368;20.962;2023-05-11T13:59:28;95851.13;;;18.06;36.52
23339;BME280;11841;49.368;20.962;2023-05-11T14:02:13;95851.50;;;17.78;36.04
23339;BME280;11841;49.368;20.962;2023-05-11T14:04:59;95847.06;;;17.57;36.84
23339;BME280;11841;49.368;20.962;2023-05-11T14:07:44;95842.81;;;17.61;38.57
23339;BME280;11841;49.368;20.962;2023-05-11T14:10:32;95844.44;;;17.67;38.44
23339;BME280;11841;49.368;20.962;2023-05-11T14:13:18;95850.88;;;17.66;36.45
23339;BME280;11841;49.368;20.962;2023-05-11T14:16:04;95833.22;;;17.75;37.05
23339;BME280;11841;49.368;20.962;2023-05-11T14:18:49;95849.38;;;17.80;36.92
23339;BME280;11841;49.368;20.962;2023-05-11T14:21:35;95833.88;;;17.92;36.94
23339;BME280;11841;49.368;20.962;2023-05-11T14:24:20;95824.84;;;18.03;36.92
23339;BME280;11841;49.368;20.962;2023-05-11T14:27:06;95825.19;;;18.17;36.83
23339;BME280;11841;49.368;20.962;2023-05-11T14:29:52;95833.50;;;18.20;35.76
23339;BME280;11841;49.368;20.962;2023-05-11T14:32:37;95823.81;;;18.14;36.42
23339;BME280;11841;49.368;20.962;2023-05-11T14:35:23;95828.16;;;18.25;36.23
23339;BME280;11841;49.368;20.962;2023-05-11T14:38:08;95833.00;;;18.23;36.25
23339;BME280;11841;49.368;20.962;2023-05-11T14:40:54;95830.00;;;18.15;36.36
23339;BME280;11841;49.368;20.962;2023-05-11T14:43:39;95831.34;;;18.12;36.37
23339;BME280;11841;49.368;20.962;2023-05-11T14:46:24;95828.09;;;18.10;35.71
23339;BME280;11841;49.368;20.962;2023-05-11T14:49:11;95822.41;;;18.01;36.29
23339;BME280;11841;49.368;20.962;2023-05-11T14:51:56;95815.19;;;18.02;36.20
23339;BME280;11841;49.368;20.962;2023-05-11T14:54:42;95832.91;;;18.08;35.84
23339;BME280;11841;49.368;20.962;2023-05-11T14:57:27;95822.19;;;18.13;36.49
23339;BME280;11841;49.368;20.962;2023-05-11T15:00:13;95812.06;;;18.25;36.75
23339;BME280;11841;49.368;20.962;2023-05-11T15:02:58;95816.09;;;18.33;36.44
23339;BME280;11841;49.368;20.962;2023-05-11T15:05:44;95810.41;;;18.19;35.38
23339;BME280;11841;49.368;20.962;2023-05-11T15:08:30;95819.53;;;18.13;36.29
23339;BME280;11841;49.368;20.962;2023-05-11T15:11:16;95821.66;;;18.11;35.76
23339;BME280;11841;49.368;20.962;2023-05-11T15:14:03;95821.06;;;18.04;36.45
23339;BME280;11841;49.368;20.962;2023-05-11T15:16:48;95815.19;;;18.02;36.60
23339;BME280;11841;49.368;20.962;2023-05-11T15:19:34;95816.78;;;18.03;36.81
23339;BME280;11841;49.368;20.962;2023-05-11T15:22:19;95823.19;;;17.97;37.34